Observations de surface / UK / EGTC

Québec | Canada | États-Unis | France | UK | Europe | Ailleurs

Affichage: Infos & localisation pour EGTC | Aide pour décoder les METARs

EGTC CRANFIELD -- UK
Raw surface observations for station EGTC
EGTC 211650Z 09003KT 9999 FEW019 02/01 Q1025=
EGTC 211620Z 11003KT 9999 SCT018 03/01 Q1025=
EGTC 211550Z 12005KT 9999 SCT018 04/02 Q1025=
EGTC 211520Z 11006KT 9999 SCT015 05/03 Q1025=
EGTC 211450Z 11007KT 9999 SCT016 05/03 Q1025=
EGTC 211420Z 11007KT 9999 BKN017 05/02 Q1025=
EGTC 211350Z 10008KT 8000 FEW012 SCT020 04/03 Q1025=
EGTC 211320Z 09009KT 9000 FEW011 BKN016 04/02 Q1026=
EGTC 211250Z 08011KT 9999 FEW010 BKN016 04/03 Q1026=
EGTC 211220Z 08010KT 6000 FEW010 BKN015 04/03 Q1026=
EGTC 211150Z 07011KT 5000 BKN011 04/03 Q1027=
EGTC 211120Z 07011KT 3000 BR BKN015 03/02 Q1027=
EGTC 211050Z 06009KT 2500 BR SCT015 03/02 Q1028=
EGTC 211020Z 05008KT 1900 BR SCT014 01/01 Q1028=
EGTC 210950Z 06006KT 0400 FG SCT015 00/00 Q1028=
EGTC 210920Z 08005KT 0000 FZFG OVC001 M00/M00 Q1028=
EGTC 210850Z 07005KT 0000 FZFG OVC001 M00/M00 Q1028=
EGTC 201750Z 04007KT CAVOK 02/00 Q1032=
EGTC 201720Z 04007KT CAVOK 02/00 Q1032=